createdAt,value
2018-09-05T00:00:22.597Z,14.20
2018-09-05T00:02:50.966Z,14.20
2018-09-05T00:05:19.268Z,14.20
2018-09-05T00:07:47.537Z,14.20
2018-09-05T00:10:15.825Z,14.20
2018-09-05T00:12:44.127Z,14.10
2018-09-05T00:15:12.402Z,14.10
2018-09-05T00:17:40.678Z,14.10
2018-09-05T00:20:08.949Z,14.10
2018-09-05T00:22:37.241Z,14.00
2018-09-05T00:25:05.718Z,14.00
2018-09-05T00:27:33.969Z,14.00
2018-09-05T00:30:02.254Z,14.00
2018-09-05T00:32:30.557Z,13.90
2018-09-05T00:34:58.889Z,13.90
2018-09-05T00:37:27.252Z,13.90
2018-09-05T00:39:55.589Z,13.90
2018-09-05T00:42:23.913Z,13.80
2018-09-05T00:44:52.329Z,13.80
2018-09-05T00:47:20.821Z,13.70
2018-09-05T00:49:49.293Z,13.70
2018-09-05T00:52:18.128Z,13.60
2018-09-05T00:54:46.472Z,13.60
2018-09-05T00:57:14.758Z,13.60
2018-09-05T00:59:43.030Z,13.50
2018-09-05T01:02:11.365Z,13.50
2018-09-05T01:04:39.640Z,13.50
2018-09-05T01:07:19.473Z,13.40
2018-09-05T01:09:47.990Z,13.40
2018-09-05T01:12:16.737Z,13.40
2018-09-05T01:14:44.986Z,13.30
2018-09-05T01:17:13.545Z,13.30
2018-09-05T01:19:41.889Z,13.30
2018-09-05T01:22:10.357Z,13.20
2018-09-05T01:24:38.954Z,13.20
2018-09-05T01:27:08.629Z,13.20
2018-09-05T01:29:38.113Z,13.20
2018-09-05T01:32:07.358Z,13.20
2018-09-05T01:34:35.710Z,13.20
2018-09-05T01:37:04.272Z,13.10
2018-09-05T01:39:32.524Z,13.10
2018-09-05T01:42:00.848Z,13.10
2018-09-05T01:44:29.105Z,13.10
2018-09-05T01:46:57.373Z,13.00
2018-09-05T01:49:25.670Z,13.00
2018-09-05T01:51:57.970Z,13.10
2018-09-05T01:54:26.277Z,13.00
2018-09-05T01:56:55.327Z,13.00
2018-09-05T01:59:24.294Z,13.00
2018-09-05T02:01:52.611Z,13.00
2018-09-05T02:04:21.107Z,13.00
2018-09-05T02:06:49.370Z,13.00
2018-09-05T02:09:17.674Z,13.00
2018-09-05T02:11:45.964Z,13.00
2018-09-05T02:14:20.518Z,13.00
2018-09-05T02:16:48.782Z,13.00
2018-09-05T02:19:17.057Z,12.90
2018-09-05T02:21:45.365Z,12.90
2018-09-05T02:24:13.582Z,12.90
2018-09-05T02:26:41.859Z,12.90
2018-09-05T02:29:10.151Z,13.00
2018-09-05T02:31:38.421Z,13.00
2018-09-05T02:34:06.726Z,13.00
2018-09-05T02:36:34.985Z,13.10
2018-09-05T02:39:03.454Z,13.10
2018-09-05T02:41:31.730Z,13.10
2018-09-05T02:44:05.453Z,13.10
2018-09-05T02:46:33.713Z,13.10
2018-09-05T02:49:02.000Z,13.20
2018-09-05T02:51:30.331Z,13.20
2018-09-05T02:53:58.588Z,13.20
2018-09-05T02:56:26.897Z,13.20
2018-09-05T02:58:55.169Z,13.20
2018-09-05T03:01:23.437Z,13.20
2018-09-05T03:03:51.789Z,13.20
2018-09-05T03:06:20.097Z,13.20
2018-09-05T03:08:48.386Z,13.20
2018-09-05T03:11:16.714Z,13.20
2018-09-05T03:13:44.968Z,13.30
2018-09-05T03:16:13.265Z,13.30
2018-09-05T03:18:41.524Z,13.30
2018-09-05T03:21:09.816Z,13.30
2018-09-05T03:23:38.194Z,13.30
2018-09-05T03:26:06.405Z,13.20
2018-09-05T03:28:34.707Z,13.30
2018-09-05T03:31:02.983Z,13.20
2018-09-05T03:33:31.294Z,13.20
2018-09-05T03:35:59.742Z,13.20
2018-09-05T03:38:28.030Z,13.20
2018-09-05T03:40:56.498Z,13.20
2018-09-05T03:43:24.744Z,13.20
2018-09-05T03:45:53.021Z,13.20
2018-09-05T03:48:21.557Z,13.20
2018-09-05T03:50:54.017Z,13.20
2018-09-05T03:53:22.332Z,13.20
2018-09-05T03:55:50.702Z,13.20
2018-09-05T03:58:19.003Z,13.20
2018-09-05T04:00:47.242Z,13.20
2018-09-05T04:03:15.538Z,13.20
2018-09-05T04:05:43.785Z,13.20
2018-09-05T04:08:12.072Z,13.20
2018-09-05T04:10:40.457Z,13.20
2018-09-05T04:13:08.744Z,13.20
2018-09-05T04:15:37.078Z,13.20
2018-09-05T04:18:05.463Z,13.20
2018-09-05T04:20:33.773Z,13.20
2018-09-05T04:23:02.097Z,13.20
2018-09-05T04:25:30.645Z,13.20
2018-09-05T04:27:58.906Z,13.20
2018-09-05T04:30:27.164Z,13.30
2018-09-05T04:32:55.425Z,13.30
2018-09-05T04:35:23.731Z,13.30
2018-09-05T04:37:52.125Z,13.40
2018-09-05T04:40:20.430Z,13.40
2018-09-05T04:42:48.712Z,13.50
2018-09-05T04:45:17.008Z,13.50
2018-09-05T04:47:45.267Z,13.60
2018-09-05T04:50:13.577Z,13.60
2018-09-05T04:52:41.913Z,13.70
2018-09-05T04:55:10.228Z,13.70
2018-09-05T04:57:38.473Z,13.80
2018-09-05T05:00:07.360Z,13.80
2018-09-05T05:02:35.678Z,13.90
2018-09-05T05:05:03.981Z,13.90
2018-09-05T05:07:32.249Z,14.00
2018-09-05T05:10:00.528Z,14.00
2018-09-05T05:12:28.812Z,14.00
2018-09-05T05:14:57.113Z,14.10
2018-09-05T05:17:25.389Z,14.20
2018-09-05T05:19:53.629Z,14.20
2018-09-05T05:22:21.906Z,14.30
2018-09-05T05:24:50.278Z,14.40
2018-09-05T05:27:18.582Z,14.50
2018-09-05T05:29:46.944Z,14.50
2018-09-05T05:32:15.222Z,14.60
2018-09-05T05:34:43.522Z,14.70
2018-09-05T05:37:11.773Z,14.70
2018-09-05T05:39:40.029Z,14.80
2018-09-05T05:42:08.317Z,14.90
2018-09-05T05:44:36.770Z,14.90
2018-09-05T05:47:05.092Z,15.00
2018-09-05T05:49:33.361Z,15.00
2018-09-05T05:52:01.624Z,15.10
2018-09-05T05:54:29.909Z,15.10
2018-09-05T05:56:58.145Z,15.20
2018-09-05T05:59:26.565Z,15.30
2018-09-05T06:01:54.849Z,15.30
2018-09-05T06:04:23.133Z,15.40
2018-09-05T06:06:51.429Z,15.40
2018-09-05T06:09:19.668Z,15.50
2018-09-05T06:11:48.032Z,15.60
2018-09-05T06:14:16.561Z,15.60
2018-09-05T06:16:44.798Z,15.70
2018-09-05T06:19:13.085Z,15.70
2018-09-05T06:21:41.360Z,15.80
2018-09-05T06:24:09.684Z,15.90
2018-09-05T06:26:37.928Z,15.90
2018-09-05T06:29:06.249Z,15.90
2018-09-05T06:31:35.067Z,16.00
2018-09-05T06:34:03.404Z,16.00
2018-09-05T06:36:31.636Z,16.00
2018-09-05T06:39:00.029Z,16.10
2018-09-05T06:41:28.269Z,16.20
2018-09-05T06:43:56.519Z,16.20
2018-09-05T06:46:24.757Z,16.20
2018-09-05T06:48:56.015Z,16.30
2018-09-05T06:51:24.291Z,16.40
2018-09-05T06:53:52.832Z,16.40
2018-09-05T06:56:21.149Z,16.40
2018-09-05T06:58:49.434Z,16.50
2018-09-05T07:01:17.792Z,16.50
2018-09-05T07:03:46.089Z,16.50
2018-09-05T07:06:14.360Z,16.60
2018-09-05T07:08:42.669Z,16.60
2018-09-05T07:11:10.948Z,16.60
2018-09-05T07:13:39.201Z,16.70
2018-09-05T07:16:07.493Z,16.80
2018-09-05T07:18:35.969Z,16.80
2018-09-05T07:21:07.056Z,16.90
2018-09-05T07:23:32.527Z,16.90
2018-09-05T07:26:00.931Z,16.90
2018-09-05T07:28:29.214Z,17.00
2018-09-05T07:30:57.565Z,17.00
2018-09-05T07:33:25.991Z,17.00
2018-09-05T07:35:54.362Z,17.10
2018-09-05T07:38:22.632Z,17.10
2018-09-05T07:40:50.905Z,17.20
2018-09-05T07:43:19.292Z,17.20
2018-09-05T07:45:47.577Z,17.20
2018-09-05T07:48:15.941Z,17.30
2018-09-05T07:50:44.267Z,17.30
2018-09-05T07:53:12.465Z,17.30
2018-09-05T07:58:15.389Z,17.40
2018-09-05T08:00:43.644Z,17.50
2018-09-05T08:03:11.955Z,17.60
2018-09-05T08:05:40.260Z,17.70
2018-09-05T08:08:08.533Z,17.70
2018-09-05T08:10:36.881Z,17.80
2018-09-05T08:13:05.262Z,17.80
2018-09-05T08:22:33.497Z,17.90
2018-09-05T08:25:01.756Z,17.90
2018-09-05T08:27:30.021Z,17.90
2018-09-05T08:29:58.338Z,17.90
2018-09-05T08:32:26.612Z,18.00
2018-09-05T08:34:55.032Z,18.00
2018-09-05T08:37:23.388Z,18.00
2018-09-05T08:39:51.594Z,18.00
2018-09-05T08:42:19.925Z,18.00
2018-09-05T08:44:48.524Z,18.00
2018-09-05T08:47:16.486Z,18.00
2018-09-05T08:49:44.746Z,18.10
2018-09-05T08:52:13.113Z,18.10
2018-09-05T08:54:41.380Z,18.10
2018-09-05T08:57:09.690Z,18.10
2018-09-05T08:59:37.953Z,18.10
2018-09-05T09:02:06.317Z,18.10
2018-09-05T09:04:34.609Z,18.20
2018-09-05T09:07:02.902Z,18.20
2018-09-05T09:09:31.134Z,18.20
2018-09-05T09:11:59.390Z,18.30
2018-09-05T09:14:27.667Z,18.30
2018-09-05T09:16:55.945Z,18.40
2018-09-05T09:19:24.241Z,18.50
2018-09-05T09:21:52.530Z,18.70
2018-09-05T09:24:20.822Z,18.80
2018-09-05T09:26:49.085Z,18.90
2018-09-05T09:29:17.365Z,19.00
2018-09-05T09:31:45.665Z,19.10
2018-09-05T09:34:14.050Z,19.20
2018-09-05T09:36:42.359Z,19.30
2018-09-05T09:39:11.477Z,19.40
2018-09-05T09:41:39.864Z,19.40
2018-09-05T09:44:08.177Z,19.40
2018-09-05T09:46:36.913Z,19.50
2018-09-05T09:49:05.130Z,19.70
2018-09-05T09:51:33.388Z,19.90
2018-09-05T09:54:01.682Z,20.10
2018-09-05T09:56:29.935Z,20.20
2018-09-05T09:58:58.247Z,20.40
2018-09-05T10:01:31.837Z,20.50
2018-09-05T10:04:05.454Z,20.50
2018-09-05T10:06:39.118Z,20.80
2018-09-05T10:09:13.530Z,21.00
2018-09-05T10:11:47.471Z,21.10
2018-09-05T10:14:21.193Z,21.50
2018-09-05T10:16:54.920Z,22.10
2018-09-05T10:19:23.213Z,22.70
2018-09-05T10:21:53.569Z,23.30
2018-09-05T10:24:21.857Z,23.90
2018-09-05T10:26:50.118Z,24.40
2018-09-05T10:29:18.409Z,24.90
2018-09-05T10:31:46.730Z,25.50
2018-09-05T10:34:14.911Z,26.00
2018-09-05T10:36:43.209Z,26.40
2018-09-05T10:39:11.692Z,26.80
2018-09-05T10:41:40.249Z,27.30
2018-09-05T10:44:09.058Z,27.70
2018-09-05T10:46:37.753Z,28.10
2018-09-05T10:49:06.073Z,28.60
2018-09-05T10:51:39.677Z,29.00
2018-09-05T10:54:08.135Z,29.30
2018-09-05T10:56:36.433Z,29.50
2018-09-05T10:59:04.747Z,30.00
2018-09-05T11:01:33.030Z,30.40
2018-09-05T11:04:01.351Z,30.40
2018-09-05T11:06:29.615Z,30.50
2018-09-05T11:08:57.857Z,30.60
2018-09-05T11:11:26.113Z,30.70
2018-09-05T11:13:54.564Z,30.60
2018-09-05T11:16:22.925Z,30.80
2018-09-05T11:18:51.305Z,31.10
2018-09-05T11:21:19.590Z,31.20
2018-09-05T11:23:47.773Z,31.40
2018-09-05T11:26:16.027Z,31.60
2018-09-05T11:28:44.317Z,31.80
2018-09-05T11:31:13.066Z,32.00
2018-09-05T11:33:41.370Z,32.20
2018-09-05T11:36:09.621Z,32.50
2018-09-05T11:38:37.954Z,32.80
2018-09-05T11:41:06.263Z,32.80
2018-09-05T11:43:34.512Z,32.30
2018-09-05T11:46:02.775Z,31.70
2018-09-05T11:48:31.254Z,31.00
2018-09-05T11:50:59.893Z,30.40
2018-09-05T11:53:28.363Z,29.70
2018-09-05T11:55:56.642Z,29.40
2018-09-05T11:58:24.881Z,29.50
2018-09-05T12:00:53.176Z,29.90
2018-09-05T12:03:21.421Z,30.50
2018-09-05T12:05:49.653Z,31.10
2018-09-05T12:08:17.905Z,31.60
2018-09-05T12:10:46.222Z,32.10
2018-09-05T12:13:14.449Z,32.60
2018-09-05T12:15:43.779Z,32.80
2018-09-05T12:18:11.889Z,32.70
2018-09-05T12:20:40.158Z,32.70
2018-09-05T12:23:08.473Z,32.70
2018-09-05T12:25:37.093Z,32.50
2018-09-05T12:28:05.364Z,32.10
2018-09-05T12:30:33.601Z,32.00
2018-09-05T12:33:01.878Z,32.00
2018-09-05T12:35:30.145Z,31.80
2018-09-05T12:37:58.405Z,31.50
2018-09-05T12:40:26.677Z,31.20
2018-09-05T12:42:54.942Z,31.50
2018-09-05T12:45:23.179Z,32.00
2018-09-05T12:47:51.433Z,32.10
2018-09-05T12:50:19.681Z,32.30
2018-09-05T12:52:47.957Z,32.50
2018-09-05T12:55:16.236Z,32.40
2018-09-05T12:57:44.518Z,32.10
2018-09-05T13:00:12.903Z,31.80
2018-09-05T13:02:41.165Z,31.60
2018-09-05T13:05:09.532Z,31.00
2018-09-05T13:07:37.773Z,30.40
2018-09-05T13:10:06.090Z,30.10
2018-09-05T13:12:34.444Z,30.40
2018-09-05T13:15:02.677Z,30.90
2018-09-05T13:17:30.973Z,31.40
2018-09-05T13:19:59.262Z,31.60
2018-09-05T13:22:27.549Z,31.40
2018-09-05T13:24:55.757Z,30.80
2018-09-05T13:27:24.121Z,30.20
2018-09-05T13:29:52.362Z,29.90
2018-09-05T13:32:20.613Z,30.10
2018-09-05T13:34:48.850Z,30.40
2018-09-05T13:37:17.150Z,30.50
2018-09-05T13:39:45.599Z,30.60
2018-09-05T13:42:13.808Z,30.50
2018-09-05T13:44:42.079Z,30.00
2018-09-05T13:47:10.523Z,29.50
2018-09-05T13:49:38.978Z,29.10
2018-09-05T13:52:07.337Z,29.20
2018-09-05T13:54:36.897Z,29.40
2018-09-05T13:57:05.213Z,29.50
2018-09-05T13:59:33.561Z,29.90
2018-09-05T14:02:01.847Z,30.20
2018-09-05T14:04:30.210Z,30.40
2018-09-05T14:06:58.519Z,30.20
2018-09-05T14:09:26.808Z,30.00
2018-09-05T14:11:55.065Z,29.70
2018-09-05T14:14:27.105Z,29.20
2018-09-05T14:16:55.505Z,28.80
2018-09-05T14:19:30.327Z,28.50
2018-09-05T14:21:58.598Z,28.20
2018-09-05T14:24:26.906Z,27.90
2018-09-05T14:26:55.153Z,27.60
2018-09-05T14:29:23.574Z,27.30
2018-09-05T14:31:51.913Z,27.00
2018-09-05T14:34:20.190Z,26.80
2018-09-05T14:36:48.429Z,26.50
2018-09-05T14:39:16.698Z,26.40
2018-09-05T14:41:45.133Z,26.30
2018-09-05T14:44:15.186Z,26.20
2018-09-05T14:46:43.499Z,26.20
2018-09-05T14:49:11.821Z,26.10
2018-09-05T14:51:40.061Z,25.90
2018-09-05T14:54:08.353Z,25.80
2018-09-05T14:56:36.614Z,25.60
2018-09-05T14:59:04.879Z,25.50
2018-09-05T15:01:33.177Z,25.30
2018-09-05T15:04:01.533Z,25.30
2018-09-05T15:06:29.823Z,25.10
2018-09-05T15:08:58.021Z,25.00
2018-09-05T15:11:26.274Z,25.00
2018-09-05T15:13:54.580Z,24.90
2018-09-05T15:16:22.951Z,24.80
2018-09-05T15:18:51.318Z,24.80
2018-09-05T15:21:19.624Z,24.70
2018-09-05T15:23:47.961Z,24.70
2018-09-05T15:26:16.277Z,24.70
2018-09-05T15:28:44.632Z,24.60
2018-09-05T15:31:12.923Z,24.50
2018-09-05T15:33:41.212Z,24.50
2018-09-05T15:36:09.489Z,24.40
2018-09-05T15:38:37.781Z,24.30
2018-09-05T15:41:06.146Z,24.30
2018-09-05T15:43:34.401Z,24.30
2018-09-05T15:46:02.707Z,24.20
2018-09-05T15:48:30.964Z,24.10
2018-09-05T15:50:59.410Z,24.10
2018-09-05T15:53:27.797Z,24.10
2018-09-05T15:55:56.033Z,24.00
2018-09-05T15:58:24.540Z,23.90
2018-09-05T16:00:52.869Z,23.90
2018-09-05T16:03:21.134Z,23.80
2018-09-05T16:05:49.384Z,23.70
2018-09-05T16:08:17.660Z,23.60
2018-09-05T16:10:45.881Z,23.60
2018-09-05T16:13:14.286Z,23.60
2018-09-05T16:15:42.704Z,23.50
2018-09-05T16:18:10.831Z,23.40
2018-09-05T16:20:39.689Z,23.40
2018-09-05T16:23:07.985Z,23.40
2018-09-05T16:25:36.252Z,23.30
2018-09-05T16:28:04.637Z,23.20
2018-09-05T16:30:33.021Z,23.20
2018-09-05T16:33:01.274Z,23.10
2018-09-05T16:35:29.650Z,23.10
2018-09-05T16:37:57.938Z,23.00
2018-09-05T16:40:26.405Z,22.90
2018-09-05T16:42:54.677Z,22.90
2018-09-05T16:45:22.960Z,22.90
2018-09-05T16:47:51.235Z,22.80
2018-09-05T16:50:19.526Z,22.70
2018-09-05T16:52:47.787Z,22.70
2018-09-05T16:55:16.197Z,22.60
2018-09-05T16:57:44.468Z,22.60
2018-09-05T17:00:12.743Z,22.50
2018-09-05T17:02:40.987Z,22.40
2018-09-05T17:05:09.264Z,22.30
2018-09-05T17:07:37.556Z,22.20
2018-09-05T17:10:05.840Z,22.10
2018-09-05T17:12:34.202Z,22.10
2018-09-05T17:15:02.470Z,22.00
2018-09-05T17:17:30.749Z,21.90
2018-09-05T17:19:59.042Z,21.90
2018-09-05T17:22:27.249Z,21.90
2018-09-05T17:24:55.471Z,21.70
2018-09-05T17:27:23.697Z,21.70
2018-09-05T17:29:52.130Z,21.60
2018-09-05T17:32:20.358Z,21.50
2018-09-05T17:34:48.577Z,21.50
2018-09-05T17:37:16.810Z,21.40
2018-09-05T17:39:45.057Z,21.30
2018-09-05T17:42:13.341Z,21.20
2018-09-05T17:44:41.641Z,21.10
2018-09-05T17:47:09.916Z,21.10
2018-09-05T17:49:38.198Z,21.00
2018-09-05T17:52:06.539Z,20.90
2018-09-05T17:54:34.822Z,20.80
2018-09-05T17:57:03.157Z,20.70
2018-09-05T17:59:31.383Z,20.60
2018-09-05T18:01:59.709Z,20.60
2018-09-05T18:04:27.925Z,20.50
2018-09-05T18:06:56.185Z,20.40
2018-09-05T18:09:24.443Z,20.30
2018-09-05T18:11:52.814Z,20.20
2018-09-05T18:14:21.056Z,20.10
2018-09-05T18:16:49.513Z,20.10
2018-09-05T18:19:17.751Z,20.00
2018-09-05T18:21:46.013Z,20.00
2018-09-05T18:24:14.253Z,19.90
2018-09-05T18:26:42.463Z,19.80
2018-09-05T18:29:10.785Z,19.70
2018-09-05T18:31:38.992Z,19.60
2018-09-05T18:34:07.503Z,19.60
2018-09-05T18:36:35.809Z,19.50
2018-09-05T18:39:05.542Z,19.40
2018-09-05T18:41:33.783Z,19.40
2018-09-05T18:44:02.021Z,19.30
2018-09-05T18:46:30.293Z,19.30
2018-09-05T18:48:58.568Z,19.20
2018-09-05T18:51:26.837Z,19.20
2018-09-05T18:53:55.079Z,19.10
2018-09-05T18:56:23.378Z,19.10
2018-09-05T18:58:51.642Z,19.00
2018-09-05T19:01:20.013Z,19.00
2018-09-05T19:03:48.305Z,18.90
2018-09-05T19:06:16.670Z,18.80
2018-09-05T19:08:44.945Z,18.80
2018-09-05T19:11:13.345Z,18.80
2018-09-05T19:13:41.829Z,18.70
2018-09-05T19:16:10.053Z,18.70
2018-09-05T19:18:38.339Z,18.60
2018-09-05T19:21:06.610Z,18.60
2018-09-05T19:23:37.780Z,18.50
2018-09-05T19:26:06.264Z,18.50
2018-09-05T19:28:34.729Z,18.50
2018-09-05T19:31:02.999Z,18.40
2018-09-05T19:33:31.443Z,18.40
2018-09-05T19:35:59.701Z,18.30
2018-09-05T19:38:28.019Z,18.30
2018-09-05T19:40:56.645Z,18.20
2018-09-05T19:43:24.893Z,18.20
2018-09-05T19:45:55.270Z,18.10
2018-09-05T19:48:23.514Z,18.10
2018-09-05T19:50:51.865Z,18.10
2018-09-05T19:53:20.096Z,18.00
2018-09-05T19:55:48.363Z,18.00
2018-09-05T19:58:16.657Z,17.90
2018-09-05T20:00:44.941Z,17.90
2018-09-05T20:03:13.291Z,17.90
2018-09-05T20:05:41.651Z,17.80
2018-09-05T20:08:09.924Z,17.70
2018-09-05T20:10:38.228Z,17.70
2018-09-05T20:13:07.134Z,17.60
2018-09-05T20:15:35.512Z,17.60
2018-09-05T20:18:03.836Z,17.50
2018-09-05T20:20:32.284Z,17.50
2018-09-05T20:23:00.545Z,17.40
2018-09-05T20:25:28.826Z,17.40
2018-09-05T20:27:57.121Z,17.40
2018-09-05T20:30:25.548Z,17.40
2018-09-05T20:32:53.884Z,17.30
2018-09-05T20:35:22.181Z,17.30
2018-09-05T20:37:50.429Z,17.30
2018-09-05T20:40:18.840Z,17.30
2018-09-05T20:42:47.594Z,17.30
2018-09-05T20:45:16.047Z,17.30
2018-09-05T20:47:44.682Z,17.20
2018-09-05T20:50:13.778Z,17.20
2018-09-05T20:52:42.050Z,17.10
2018-09-05T20:55:10.432Z,17.10
2018-09-05T20:57:38.747Z,17.10
2018-09-05T21:00:09.659Z,17.00
2018-09-05T21:02:38.038Z,17.00
2018-09-05T21:05:06.394Z,16.90
2018-09-05T21:07:34.724Z,16.90
2018-09-05T21:10:03.000Z,16.90
2018-09-05T21:12:31.464Z,16.80
2018-09-05T21:14:59.748Z,16.80
2018-09-05T21:17:28.035Z,16.70
2018-09-05T21:19:56.281Z,16.70
2018-09-05T21:22:24.680Z,16.70
2018-09-05T21:24:52.957Z,16.70
2018-09-05T21:27:21.247Z,16.60
2018-09-05T21:29:49.696Z,16.60
2018-09-05T21:32:18.009Z,16.50
2018-09-05T21:34:46.489Z,16.50
2018-09-05T21:37:14.755Z,16.50
2018-09-05T21:39:43.372Z,16.40
2018-09-05T21:42:11.649Z,16.40
2018-09-05T21:44:40.328Z,16.40
2018-09-05T21:47:08.636Z,16.40
2018-09-05T21:49:36.998Z,16.30
2018-09-05T21:52:05.416Z,16.20
2018-09-05T21:54:34.261Z,16.20
2018-09-05T21:57:02.533Z,16.20
2018-09-05T21:59:30.813Z,16.20
2018-09-05T22:01:59.081Z,16.20
2018-09-05T22:04:27.364Z,16.10
2018-09-05T22:06:55.685Z,16.10
2018-09-05T22:09:24.061Z,16.10
2018-09-05T22:11:52.328Z,16.10
2018-09-05T22:14:20.586Z,16.00
2018-09-05T22:16:48.817Z,16.00
2018-09-05T22:19:17.144Z,16.00
2018-09-05T22:21:45.524Z,16.00
2018-09-05T22:24:13.912Z,16.00
2018-09-05T22:26:42.144Z,15.90
2018-09-05T22:29:10.465Z,15.90
2018-09-05T22:31:38.833Z,15.90
2018-09-05T22:34:07.187Z,15.80
2018-09-05T22:36:35.545Z,15.80
2018-09-05T22:39:04.702Z,15.80
2018-09-05T22:41:32.978Z,15.80
2018-09-05T22:44:12.547Z,15.70
2018-09-05T22:46:52.213Z,15.70
2018-09-05T22:50:09.490Z,15.70
2018-09-05T22:53:24.462Z,15.70
2018-09-05T22:58:19.631Z,15.60
2018-09-05T23:03:00.846Z,15.60
2018-09-05T23:07:53.143Z,15.60
2018-09-05T23:10:32.770Z,15.50
2018-09-05T23:13:12.326Z,15.50
2018-09-05T23:15:51.800Z,15.40
2018-09-05T23:18:43.110Z,15.40
2018-09-05T23:21:22.108Z,15.40
2018-09-05T23:23:58.641Z,15.40
2018-09-05T23:26:27.060Z,15.40
2018-09-05T23:28:55.391Z,15.40
2018-09-05T23:31:24.088Z,15.40
2018-09-05T23:33:52.602Z,15.40
2018-09-05T23:36:21.843Z,15.30
2018-09-05T23:38:50.196Z,15.30
2018-09-05T23:41:18.527Z,15.30
2018-09-05T23:43:46.796Z,15.30
2018-09-05T23:46:15.042Z,15.30
2018-09-05T23:48:43.285Z,15.30
2018-09-05T23:51:11.590Z,15.30
2018-09-05T23:53:40.010Z,15.20
2018-09-05T23:56:08.258Z,15.20
2018-09-05T23:58:36.559Z,15.20
